Terminal Aerodrome Forecast
Issued by NWS Omaha/Valley, NE

Home | Current Version | Previous Version | Text Only | Print | Product List | Glossary Off
Versions: 1 2 3 4 5 6 7 8 9 10 11 12 13 14 15 16 17 18 19 20 21 22 23 24 25 26 27 28 29 30 31 32 33 34 35 36 37 38 39 40 41 42 43 44

000
FTUS43 KOAX 261726
TAFOFK
TAF
KOFK 261726Z 2618/2718 34023G30KT P6SM OVC015
     FM262100 34018G25KT P6SM OVC015
      TEMPO 2621/2624 35015KT P6SM SCT015 BKN025
     FM270000 35010KT P6SM SCT025 BKN100
     FM270500 35004KT P6SM BKN050=

USA.gov is the U.S. government's official web portal to all federal, state and local government web resources and services.